Time;durP1;ratioP1;P1;durP2;ratioP2;P2;SDS_P1;SDS_P2;PMS_P1;PMS_P2;Temp;Humidity;BMP_temperature;BMP_pressure;BME280_temperature;BME280_humidity;BME280_pressure;Samples;Min_cycle;Max_cycle;Signal;HPM_P1;HPM_P2
2022/05/08 00:00:10;;;;;;;51.70;25.67;;;12.40;99.90;;;;;;5016777;28;20202;-61
2022/05/08 00:02:40;;;;;;;46.47;24.63;;;12.40;99.90;;;;;;5024311;28;20194;-61
2022/05/08 00:05:12;;;;;;;45.73;23.70;;;12.40;99.90;;;;;;5026777;28;20186;-61
2022/05/08 00:07:40;;;;;;;38.53;22.90;;;12.30;99.90;;;;;;5020562;28;20293;-61
2022/05/08 00:10:09;;;;;;;43.60;23.33;;;12.30;99.90;;;;;;5008153;28;20281;-61
2022/05/08 00:12:37;;;;;;;43.43;22.73;;;12.20;99.90;;;;;;5020130;28;20193;-61
2022/05/08 00:15:07;;;;;;;41.40;22.63;;;12.20;99.90;;;;;;5016288;28;20214;-61
2022/05/08 00:17:35;;;;;;;39.67;20.50;;;12.20;99.90;;;;;;5024414;28;20757;-61
2022/05/08 00:20:08;;;;;;;37.63;20.43;;;12.20;99.90;;;;;;5015910;28;20536;-61
2022/05/08 00:22:44;;;;;;;34.33;19.57;;;12.10;99.90;;;;;;5024521;28;20210;-61
2022/05/08 00:25:12;;;;;;;31.30;18.37;;;12.10;99.90;;;;;;5019150;28;20190;-61
2022/05/08 00:27:41;;;;;;;27.30;17.27;;;12.10;99.90;;;;;;5012200;28;20194;-61
2022/05/08 00:30:10;;;;;;;30.57;17.47;;;12.10;99.90;;;;;;5009236;28;20198;-61
2022/05/08 00:32:39;;;;;;;25.77;16.30;;;12.10;99.90;;;;;;5021398;28;20251;-61
2022/05/08 00:35:10;;;;;;;25.53;16.23;;;12.00;99.90;;;;;;5025101;28;20228;-61
2022/05/08 00:37:40;;;;;;;29.20;15.90;;;12.00;99.90;;;;;;4997848;28;20206;-61
2022/05/08 00:40:09;;;;;;;25.70;14.63;;;12.00;99.90;;;;;;5021235;28;20260;-61
2022/05/08 00:42:37;;;;;;;23.87;13.40;;;11.90;99.90;;;;;;5012051;28;20198;-61
2022/05/08 00:45:06;;;;;;;25.93;14.53;;;11.90;99.90;;;;;;5015014;28;20280;-61
2022/05/08 00:47:35;;;;;;;22.77;13.57;;;11.90;99.90;;;;;;5013096;28;20201;-62
2022/05/08 00:50:04;;;;;;;20.57;12.83;;;11.90;99.90;;;;;;5014020;28;20198;-61
2022/05/08 00:52:35;;;;;;;24.37;12.93;;;11.90;99.90;;;;;;5030209;28;20209;-61
2022/05/08 00:55:07;;;;;;;18.53;12.60;;;11.80;99.90;;;;;;5018299;28;20281;-61
2022/05/08 00:57:36;;;;;;;21.83;11.93;;;11.80;99.90;;;;;;5012970;28;20226;-61
2022/05/08 01:00:06;;;;;;;22.20;12.63;;;11.80;99.90;;;;;;5013000;28;20197;-61
2022/05/08 01:02:37;;;;;;;19.67;11.80;;;11.90;99.90;;;;;;5024926;28;20212;-61
2022/05/08 01:05:06;;;;;;;21.53;12.20;;;11.90;99.90;;;;;;5023383;28;20190;-61
2022/05/08 01:07:34;;;;;;;18.40;11.30;;;11.90;99.90;;;;;;5014833;28;20189;-61
2022/05/08 01:10:03;;;;;;;18.03;10.63;;;11.90;99.90;;;;;;5033459;28;20198;-61
2022/05/08 01:12:36;;;;;;;13.57;10.53;;;11.90;99.90;;;;;;5018069;28;20209;-61
2022/05/08 01:15:12;;;;;;;16.90;10.33;;;11.80;99.90;;;;;;5015395;28;20198;-61
2022/05/08 01:17:41;;;;;;;21.83;11.10;;;11.80;99.90;;;;;;5019677;28;20664;-61
2022/05/08 01:20:10;;;;;;;16.53;10.60;;;11.80;99.90;;;;;;5026092;28;20206;-61
2022/05/08 01:22:40;;;;;;;17.47;10.27;;;11.80;99.90;;;;;;5026882;28;20210;-61
2022/05/08 01:25:08;;;;;;;18.20;10.43;;;11.70;99.90;;;;;;5026554;28;20194;-61
2022/05/08 01:27:38;;;;;;;15.10;9.73;;;11.70;99.90;;;;;;5027977;28;20274;-61
2022/05/08 01:30:07;;;;;;;19.27;10.43;;;11.70;99.90;;;;;;5026553;28;20248;-61
2022/05/08 01:32:36;;;;;;;16.43;10.07;;;11.60;99.90;;;;;;5027259;28;20238;-61
2022/05/08 01:35:05;;;;;;;15.37;10.63;;;11.60;99.90;;;;;;5032706;28;20215;-61
2022/05/08 01:37:34;;;;;;;17.30;10.40;;;11.60;99.90;;;;;;5028850;28;20204;-61
2022/05/08 01:40:04;;;;;;;13.03;9.87;;;11.60;99.90;;;;;;5030928;28;20225;-61
2022/05/08 01:42:33;;;;;;;14.13;10.07;;;11.60;99.90;;;;;;5032814;28;20280;-61
2022/05/08 01:45:01;;;;;;;15.57;10.37;;;11.70;99.90;;;;;;5025662;28;20189;-61
2022/05/08 01:50:15;;;;;;;13.00;10.20;;;11.70;99.90;;;;;;5025632;28;20205;-61
2022/05/08 01:52:44;;;;;;;15.23;10.27;;;11.80;99.90;;;;;;5030226;28;20214;-61
2022/05/08 01:55:13;;;;;;;15.83;10.40;;;11.80;99.90;;;;;;5034487;28;20203;-61
2022/05/08 01:57:41;;;;;;;14.77;10.50;;;11.80;99.90;;;;;;5031391;28;20647;-61
2022/05/08 02:00:11;;;;;;;15.57;9.93;;;11.80;99.90;;;;;;5024050;28;20296;-61
2022/05/08 02:02:40;;;;;;;18.37;11.07;;;11.80;99.90;;;;;;5032842;28;20748;-61
2022/05/08 02:05:10;;;;;;;15.80;10.77;;;11.90;99.90;;;;;;5028056;28;20279;-61
2022/05/08 02:07:38;;;;;;;14.63;10.20;;;11.90;99.90;;;;;;5027617;28;20193;-61
2022/05/08 02:10:07;;;;;;;18.63;10.83;;;11.90;99.90;;;;;;5031448;28;20190;-61
2022/05/08 02:12:37;;;;;;;17.70;11.23;;;11.90;99.90;;;;;;5037651;28;20193;-58
2022/05/08 02:15:07;;;;;;;17.90;10.17;;;11.90;99.90;;;;;;5033696;28;20196;-59
2022/05/08 02:17:36;;;;;;;14.33;11.00;;;11.90;99.90;;;;;;5013478;28;20728;-59
2022/05/08 02:20:08;;;;;;;14.83;10.57;;;11.90;99.90;;;;;;5042766;28;20207;-58
2022/05/08 02:22:37;;;;;;;16.93;10.50;;;11.90;99.90;;;;;;5049766;28;20688;-58
2022/05/08 02:25:07;;;;;;;16.50;9.37;;;11.80;99.90;;;;;;5048867;28;20223;-59
2022/05/08 02:27:38;;;;;;;17.20;10.47;;;11.80;99.90;;;;;;5039913;28;20197;-58
2022/05/08 02:30:11;;;;;;;18.17;10.63;;;11.70;99.90;;;;;;5047611;28;20662;-58
2022/05/08 02:32:40;;;;;;;17.50;10.70;;;11.60;99.90;;;;;;5012132;28;20189;-58
2022/05/08 02:35:10;;;;;;;17.30;10.80;;;11.60;99.90;;;;;;5004369;28;20221;-59
2022/05/08 02:37:39;;;;;;;17.37;10.53;;;11.50;99.90;;;;;;5018138;28;20233;-59
2022/05/08 02:40:09;;;;;;;19.20;11.17;;;11.50;99.90;;;;;;5032831;28;20232;-59
2022/05/08 02:42:40;;;;;;;20.20;12.10;;;11.50;99.90;;;;;;5039937;28;20197;-58
2022/05/08 02:45:11;;;;;;;17.33;11.20;;;11.40;99.90;;;;;;5036596;28;20256;-58
2022/05/08 02:47:40;;;;;;;18.37;12.50;;;11.40;99.90;;;;;;5032973;28;20190;-59
2022/05/08 02:50:10;;;;;;;18.23;12.20;;;11.40;99.90;;;;;;5032728;28;20209;-59
2022/05/08 02:52:39;;;;;;;15.50;10.80;;;11.40;99.90;;;;;;5036263;28;20216;-59
2022/05/08 03:00:45;;;;;;;18.67;12.13;;;11.50;99.90;;;;;;5031067;28;20243;-59
2022/05/08 03:03:15;;;;;;;19.37;12.13;;;11.50;99.90;;;;;;5035785;28;20201;-59
2022/05/08 03:05:44;;;;;;;18.07;10.73;;;11.60;99.90;;;;;;5032032;28;20658;-59
2022/05/08 03:08:15;;;;;;;18.27;11.23;;;11.50;99.90;;;;;;5030738;28;20204;-58
2022/05/08 03:13:35;;;;;;;17.10;11.40;;;11.60;99.90;;;;;;5030971;28;20984;-59
2022/05/08 03:16:04;;;;;;;16.00;11.03;;;11.60;99.90;;;;;;5036320;28;20200;-58
2022/05/08 03:18:34;;;;;;;21.43;11.73;;;11.60;99.90;;;;;;5014478;28;20316;-59
2022/05/08 03:21:02;;;;;;;16.87;11.47;;;11.60;99.90;;;;;;5037254;28;20221;-59
2022/05/08 03:23:34;;;;;;;18.90;10.50;;;11.60;99.90;;;;;;5031189;28;20189;-59
2022/05/08 03:26:04;;;;;;;18.10;10.80;;;11.60;99.90;;;;;;5031867;28;20202;-58
2022/05/08 03:28:35;;;;;;;16.37;10.77;;;11.60;99.90;;;;;;5035380;28;20224;-59
2022/05/08 03:31:03;;;;;;;16.37;11.13;;;11.60;99.90;;;;;;5032712;28;20543;-58
2022/05/08 03:33:32;;;;;;;16.27;10.30;;;11.60;99.90;;;;;;5031794;28;20946;-57
2022/05/08 03:36:01;;;;;;;14.90;9.93;;;11.70;99.90;;;;;;5031142;28;20228;-58
2022/05/08 03:38:30;;;;;;;18.20;10.50;;;11.70;99.90;;;;;;5013213;28;20561;-59
2022/05/08 03:40:58;;;;;;;16.80;10.43;;;11.70;99.90;;;;;;5016701;28;20204;-59
2022/05/08 03:43:26;;;;;;;17.90;10.43;;;11.80;99.90;;;;;;5032355;28;20625;-58
2022/05/08 03:45:57;;;;;;;15.20;10.30;;;11.80;99.90;;;;;;5040098;28;20208;-58
2022/05/08 03:48:25;;;;;;;16.47;9.33;;;11.80;99.90;;;;;;5026475;28;20651;-58
2022/05/08 03:50:54;;;;;;;15.00;9.63;;;11.90;99.90;;;;;;5030269;28;20550;-58
2022/05/08 03:53:22;;;;;;;12.50;8.60;;;12.00;99.90;;;;;;5030048;28;20302;-58
2022/05/08 03:55:50;;;;;;;11.77;8.63;;;12.00;99.90;;;;;;5031625;28;20203;-58
2022/05/08 03:58:19;;;;;;;11.57;8.23;;;12.00;99.90;;;;;;5027574;28;20304;-58
2022/05/08 04:00:47;;;;;;;12.20;8.53;;;12.00;99.90;;;;;;5033901;28;20689;-58
2022/05/08 04:03:17;;;;;;;14.80;9.20;;;12.00;99.90;;;;;;5024081;28;20667;-59
2022/05/08 04:05:45;;;;;;;15.97;9.37;;;12.00;99.90;;;;;;5046912;28;20189;-58
2022/05/08 04:08:14;;;;;;;14.13;8.90;;;12.00;99.90;;;;;;5031774;28;20209;-58
2022/05/08 04:10:42;;;;;;;14.17;8.77;;;12.00;99.90;;;;;;5046404;28;20186;-59
2022/05/08 04:13:12;;;;;;;10.97;7.83;;;12.00;99.90;;;;;;5023515;28;20664;-58
2022/05/08 04:18:28;;;;;;;13.97;8.47;;;12.00;99.90;;;;;;5024930;28;20234;-58
2022/05/08 04:20:56;;;;;;;15.80;8.80;;;12.00;99.90;;;;;;5019241;28;20630;-59
2022/05/08 04:26:10;;;;;;;17.40;9.30;;;12.00;99.90;;;;;;5019623;28;20205;-59
2022/05/08 04:28:39;;;;;;;16.10;9.20;;;12.00;99.90;;;;;;5026078;28;20198;-58
2022/05/08 04:31:07;;;;;;;11.73;9.80;;;12.00;99.90;;;;;;5025128;28;20236;-59
2022/05/08 04:33:37;;;;;;;13.60;9.20;;;11.90;99.90;;;;;;5021571;28;20209;-59
2022/05/08 04:36:06;;;;;;;13.20;9.17;;;11.90;99.90;;;;;;5009621;28;20237;-58
2022/05/08 04:38:34;;;;;;;12.90;8.60;;;11.80;99.90;;;;;;5009990;28;20232;-58
2022/05/08 04:41:02;;;;;;;17.20;9.70;;;11.80;99.90;;;;;;5032195;28;20682;-58
2022/05/08 04:43:31;;;;;;;14.17;9.23;;;11.70;99.90;;;;;;5020230;28;20956;-59
2022/05/08 04:45:59;;;;;;;15.07;10.07;;;11.70;99.90;;;;;;5029707;28;20201;-58
2022/05/08 04:48:28;;;;;;;15.83;10.00;;;11.60;99.90;;;;;;5028513;28;20217;-59
2022/05/08 04:50:58;;;;;;;14.23;9.50;;;11.60;99.90;;;;;;5015186;28;20205;-59
2022/05/08 04:53:26;;;;;;;14.77;9.93;;;11.60;99.90;;;;;;5014751;28;20237;-58
2022/05/08 04:55:55;;;;;;;16.40;10.57;;;11.60;99.90;;;;;;5004826;28;20209;-58
2022/05/08 04:58:25;;;;;;;18.07;10.50;;;11.60;99.90;;;;;;5010889;28;20247;-60
2022/05/08 05:00:54;;;;;;;14.70;10.33;;;11.60;99.90;;;;;;4999915;28;20284;-59
2022/05/08 05:03:22;;;;;;;16.67;10.37;;;11.60;99.90;;;;;;5018920;28;20198;-59
2022/05/08 05:05:51;;;;;;;17.10;11.57;;;11.60;99.90;;;;;;5024676;28;20209;-58
2022/05/08 05:08:21;;;;;;;14.90;10.97;;;11.60;99.90;;;;;;5010996;28;20807;-59
2022/05/08 05:10:50;;;;;;;20.33;11.17;;;11.70;99.90;;;;;;5025656;28;20193;-58
2022/05/08 05:13:18;;;;;;;14.43;11.10;;;11.70;99.90;;;;;;4992200;28;20256;-59
2022/05/08 05:15:47;;;;;;;15.97;10.57;;;11.70;99.90;;;;;;5016768;28;20202;-59
2022/05/08 05:18:15;;;;;;;18.53;11.50;;;11.80;99.90;;;;;;5026866;28;20255;-57
2022/05/08 05:20:45;;;;;;;15.17;11.03;;;11.80;99.90;;;;;;5035549;28;20203;-58
2022/05/08 05:23:14;;;;;;;15.70;11.40;;;11.80;99.90;;;;;;5044159;28;20177;-58
2022/05/08 05:25:43;;;;;;;16.50;11.23;;;11.90;99.90;;;;;;5026668;28;20305;-59
2022/05/08 05:28:11;;;;;;;17.50;10.67;;;11.90;99.90;;;;;;5033593;28;20207;-58
2022/05/08 05:30:40;;;;;;;16.77;10.70;;;12.00;99.90;;;;;;5032531;28;20991;-58
2022/05/08 05:33:10;;;;;;;20.43;10.80;;;12.00;99.90;;;;;;5031497;28;20244;-59
2022/05/08 05:35:38;;;;;;;14.50;10.23;;;12.10;99.90;;;;;;5025321;28;20663;-58
2022/05/08 05:38:07;;;;;;;15.80;10.87;;;12.10;99.90;;;;;;5028343;28;20559;-58
2022/05/08 05:40:35;;;;;;;17.77;10.07;;;12.20;99.90;;;;;;5026035;28;20200;-59
2022/05/08 05:43:05;;;;;;;18.17;11.07;;;12.20;99.90;;;;;;5028184;28;20200;-58
2022/05/08 05:45:33;;;;;;;19.13;9.90;;;12.20;99.90;;;;;;5028633;28;20190;-58
2022/05/08 05:48:01;;;;;;;18.70;10.67;;;12.30;99.90;;;;;;5029495;28;20206;-58
2022/05/08 05:50:29;;;;;;;15.90;10.87;;;12.30;99.90;;;;;;5033024;28;20213;-59
2022/05/08 05:52:58;;;;;;;15.13;10.57;;;12.30;99.90;;;;;;5038641;28;20300;-58
2022/05/08 05:55:26;;;;;;;13.97;10.37;;;12.40;99.90;;;;;;5034330;28;20225;-58
2022/05/08 05:57:55;;;;;;;15.30;10.47;;;12.40;99.90;;;;;;5040864;28;20229;-58
2022/05/08 06:00:25;;;;;;;13.77;10.23;;;12.50;99.90;;;;;;5015731;28;20193;-58
2022/05/08 06:02:53;;;;;;;16.13;9.73;;;12.40;99.90;;;;;;5027294;28;20286;-58
2022/05/08 06:05:22;;;;;;;15.70;10.30;;;12.40;99.90;;;;;;5008435;28;20201;-57
2022/05/08 06:07:50;;;;;;;17.80;10.33;;;12.50;99.90;;;;;;5026704;28;20666;-58
2022/05/08 06:10:19;;;;;;;18.40;9.63;;;12.50;99.90;;;;;;5024240;28;20201;-58
2022/05/08 06:12:47;;;;;;;15.17;10.03;;;12.60;99.90;;;;;;5034222;28;20215;-58
2022/05/08 06:15:15;;;;;;;17.37;10.20;;;12.60;99.90;;;;;;5030473;28;20233;-58
2022/05/08 06:17:45;;;;;;;16.23;9.77;;;12.60;99.90;;;;;;5036463;28;20233;-58
2022/05/08 06:20:14;;;;;;;17.30;10.23;;;12.70;99.90;;;;;;5031517;28;20353;-59
2022/05/08 06:22:42;;;;;;;16.03;9.73;;;12.80;99.90;;;;;;5046949;28;20701;-59
2022/05/08 06:25:12;;;;;;;14.97;9.67;;;12.80;99.90;;;;;;5051646;28;20743;-58
2022/05/08 06:27:40;;;;;;;15.43;10.07;;;12.90;99.90;;;;;;5035050;28;20648;-59
2022/05/08 06:30:10;;;;;;;18.10;9.37;;;12.90;99.90;;;;;;5016194;28;20618;-59
2022/05/08 06:32:38;;;;;;;16.40;10.23;;;13.00;99.90;;;;;;5034417;28;20650;-59
2022/05/08 06:35:28;;;;;;;14.13;9.50;;;13.00;99.90;;;;;;5029336;28;20212;-58
2022/05/08 06:37:56;;;;;;;15.07;9.90;;;12.90;99.90;;;;;;5053798;28;20190;-58
2022/05/08 06:40:25;;;;;;;17.93;10.03;;;12.80;99.90;;;;;;5036476;28;20644;-58
2022/05/08 06:42:54;;;;;;;13.87;9.10;;;12.80;99.90;;;;;;5029879;28;20663;-59
2022/05/08 06:45:24;;;;;;;16.93;9.53;;;12.70;99.90;;;;;;5033149;28;20197;-58
2022/05/08 06:47:53;;;;;;;20.57;9.93;;;12.70;99.90;;;;;;5031500;28;20289;-58
2022/05/08 06:50:22;;;;;;;17.07;10.33;;;12.70;99.90;;;;;;5017359;28;20193;-59
2022/05/08 06:52:52;;;;;;;15.33;9.53;;;12.70;99.90;;;;;;5033128;28;20217;-59
2022/05/08 06:55:20;;;;;;;19.63;9.63;;;12.80;99.90;;;;;;5034191;28;20201;-59
2022/05/08 06:57:52;;;;;;;17.70;9.33;;;12.90;99.90;;;;;;5031014;28;20197;-60
2022/05/08 07:03:11;;;;;;;15.73;9.13;;;13.30;99.90;;;;;;5043807;28;20203;-59
2022/05/08 07:05:45;;;;;;;19.57;8.83;;;13.60;99.90;;;;;;5015198;28;20558;-59
2022/05/08 07:08:17;;;;;;;12.10;8.63;;;13.90;99.90;;;;;;5027500;28;20205;-58
2022/05/08 07:10:48;;;;;;;12.00;8.03;;;14.20;99.90;;;;;;5028270;28;20222;-58
2022/05/08 07:13:22;;;;;;;13.43;8.00;;;14.40;99.90;;;;;;5039670;28;20254;-58
2022/05/08 07:15:54;;;;;;;16.57;8.23;;;14.50;99.90;;;;;;5036115;28;20197;-58
2022/05/08 07:18:27;;;;;;;15.30;7.87;;;14.50;99.90;;;;;;4992960;28;20229;-59
2022/05/08 07:20:57;;;;;;;16.07;7.80;;;14.60;99.90;;;;;;5028991;28;20198;-59
2022/05/08 07:23:27;;;;;;;13.20;8.07;;;14.70;99.90;;;;;;5021219;28;20198;-58
2022/05/08 07:25:55;;;;;;;16.57;8.23;;;14.70;99.90;;;;;;5013900;28;20205;-58
2022/05/08 07:28:23;;;;;;;15.60;8.00;;;15.00;99.90;;;;;;5014633;28;20191;-58
2022/05/08 07:30:52;;;;;;;10.90;7.47;;;15.10;99.90;;;;;;5007973;28;20190;-58
2022/05/08 07:33:20;;;;;;;10.37;6.87;;;15.20;99.90;;;;;;5009046;28;20564;-59
2022/05/08 07:38:36;;;;;;;15.43;7.73;;;15.30;99.90;;;;;;5015455;28;20219;-59
2022/05/08 07:41:04;;;;;;;13.13;7.03;;;15.40;99.90;;;;;;5020159;28;20592;-59
2022/05/08 07:43:33;;;;;;;14.40;7.13;;;15.80;99.90;;;;;;5015019;28;21476;-59
2022/05/08 07:46:01;;;;;;;12.70;6.10;;;16.00;99.90;;;;;;5024065;28;20544;-60
2022/05/08 07:48:31;;;;;;;14.40;7.10;;;16.20;99.90;;;;;;5011374;28;20205;-59
2022/05/08 07:51:00;;;;;;;9.77;5.90;;;16.00;99.90;;;;;;5027678;28;20259;-59
2022/05/08 07:53:30;;;;;;;13.23;6.23;;;16.00;99.90;;;;;;5011438;28;20302;-60
2022/05/08 07:56:00;;;;;;;10.70;5.60;;;16.10;99.90;;;;;;5029735;28;21171;-60
2022/05/08 07:58:31;;;;;;;9.27;5.43;;;16.30;99.90;;;;;;5011935;28;20285;-59
2022/05/08 08:01:02;;;;;;;11.30;5.27;;;16.30;99.90;;;;;;5014740;28;20203;-59
2022/05/08 08:03:33;;;;;;;10.87;5.33;;;16.50;99.90;;;;;;5004937;28;20209;-59
2022/05/08 08:06:02;;;;;;;8.33;4.43;;;16.80;99.90;;;;;;5008620;28;20264;-59
2022/05/08 08:08:40;;;;;;;8.83;4.60;;;17.10;99.90;;;;;;5011027;28;20321;-59
2022/05/08 08:11:11;;;;;;;7.67;5.00;;;17.40;99.90;;;;;;5007408;28;20199;-59
2022/05/08 08:13:40;;;;;;;7.33;4.87;;;17.40;99.90;;;;;;5010629;28;20257;-59
2022/05/08 08:16:09;;;;;;;8.70;4.33;;;17.40;99.90;;;;;;5008624;28;20194;-59
2022/05/08 08:18:38;;;;;;;11.20;4.53;;;17.60;99.90;;;;;;5017450;28;20241;-59
2022/05/08 08:21:10;;;;;;;9.33;4.10;;;17.50;99.90;;;;;;5031035;28;20284;-59
2022/05/08 08:23:40;;;;;;;6.70;3.87;;;17.70;99.90;;;;;;5012773;28;20198;-60
2022/05/08 08:26:11;;;;;;;6.67;4.03;;;18.30;99.90;;;;;;5036002;28;20193;-59
2022/05/08 08:28:39;;;;;;;9.10;3.80;;;18.40;99.90;;;;;;5032860;28;20247;-59
2022/05/08 08:31:08;;;;;;;8.90;4.20;;;18.50;99.90;;;;;;5027365;28;20189;-63
2022/05/08 08:33:38;;;;;;;6.57;3.87;;;18.60;99.90;;;;;;5028448;28;20749;-63
2022/05/08 08:36:08;;;;;;;9.03;3.93;;;18.60;99.90;;;;;;5026939;28;20265;-63
2022/05/08 08:38:38;;;;;;;10.20;4.30;;;18.70;99.90;;;;;;5030397;28;20238;-63
2022/05/08 08:41:07;;;;;;;4.03;3.33;;;19.10;99.90;;;;;;5031567;28;20214;-63
2022/05/08 08:49:19;;;;;;;6.57;4.03;;;20.10;99.90;;;;;;5028361;28;20230;-63
2022/05/08 08:51:49;;;;;;;4.67;3.57;;;19.90;99.90;;;;;;5025928;28;20286;-63
2022/05/08 08:54:19;;;;;;;8.00;3.47;;;20.00;99.90;;;;;;5032798;28;20203;-63
2022/05/08 08:56:47;;;;;;;6.87;3.30;;;20.40;99.90;;;;;;5026886;28;20200;-63
2022/05/08 08:59:22;;;;;;;6.03;3.40;;;20.70;99.90;;;;;;5020483;28;20217;-63
2022/05/08 09:01:50;;;;;;;5.90;3.80;;;20.70;99.90;;;;;;5044072;28;20202;-63
2022/05/08 09:04:19;;;;;;;5.80;3.20;;;20.70;99.90;;;;;;5009927;28;20204;-63
2022/05/08 09:06:48;;;;;;;6.47;3.43;;;21.20;99.90;;;;;;5029880;28;20193;-63
2022/05/08 09:09:27;;;;;;;7.93;3.60;;;21.60;99.90;;;;;;5026412;28;20256;-63
2022/05/08 09:11:57;;;;;;;5.30;3.43;;;21.40;99.90;;;;;;5026949;28;20284;-63
2022/05/08 09:14:31;;;;;;;6.80;3.80;;;21.40;99.90;;;;;;5007912;28;20275;-63
2022/05/08 09:17:01;;;;;;;7.97;3.57;;;21.40;99.90;;;;;;5028710;28;20197;-63
2022/05/08 09:19:36;;;;;;;6.20;3.47;;;21.70;99.90;;;;;;5019857;28;20231;-63
2022/05/08 09:22:05;;;;;;;6.17;3.10;;;21.90;99.90;;;;;;5032142;28;20700;-63
2022/05/08 09:24:34;;;;;;;10.38;3.42;;;22.20;99.90;;;;;;5016371;28;20650;-63
2022/05/08 09:27:13;;;;;;;7.15;2.80;;;22.20;99.90;;;;;;5032703;28;20904;-63
2022/05/08 09:29:44;;;;;;;8.60;3.13;;;22.30;99.90;;;;;;5023439;28;20497;-63
2022/05/08 09:32:36;;;;;;;8.63;3.43;;;22.30;99.90;;;;;;5007191;28;20208;-63
2022/05/08 09:35:06;;;;;;;5.30;3.40;;;22.20;99.90;;;;;;5021965;28;20207;-63
2022/05/08 09:37:34;;;;;;;8.45;2.88;;;22.70;99.90;;;;;;5034124;28;20215;-63
2022/05/08 09:40:16;;;;;;;5.68;3.30;;;23.10;99.90;;;;;;5031617;28;20929;-63
2022/05/08 09:42:45;;;;;;;7.43;3.28;;;23.60;99.90;;;;;;5031122;28;20549;-63
2022/05/08 09:45:15;;;;;;;6.28;3.25;;;23.90;99.90;;;;;;5029760;28;20656;-63
2022/05/08 09:47:46;;;;;;;7.28;3.20;;;24.00;99.90;;;;;;5032767;28;20199;-63
2022/05/08 09:50:16;;;;;;;9.90;3.30;;;24.00;99.90;;;;;;5032547;28;20197;-62
2022/05/08 09:52:46;;;;;;;8.48;3.78;;;24.20;99.90;;;;;;5031782;28;20223;-62
2022/05/08 09:55:15;;;;;;;11.70;4.13;;;24.10;99.90;;;;;;5030184;28;20277;-60
2022/05/08 09:57:43;;;;;;;8.63;5.95;;;24.30;99.90;;;;;;5030833;28;20205;-60
2022/05/08 10:00:16;;;;;;;39.75;24.80;;;23.90;99.90;;;;;;5035325;28;20229;-60
2022/05/08 10:03:07;;;;;;;7.88;3.10;;;24.60;99.90;;;;;;5031187;28;20203;-62
2022/05/08 10:05:37;;;;;;;21.15;13.70;;;24.40;99.40;;;;;;5036442;28;20203;-60
2022/05/08 10:08:09;;;;;;;6.38;3.22;;;24.30;99.90;;;;;;5046003;28;20191;-62
2022/05/08 10:13:56;;;;;;;4.05;2.42;;;24.80;98.90;;;;;;5030752;28;21168;-62
2022/05/08 10:16:45;;;;;;;10.18;3.03;;;24.80;98.80;;;;;;5027756;28;20642;-62
2022/05/08 10:19:45;;;;;;;5.78;3.08;;;24.40;99.20;;;;;;5033899;28;20236;-62
2022/05/08 10:22:14;;;;;;;10.25;2.83;;;24.60;99.10;;;;;;5030550;28;20302;-60
2022/05/08 10:24:48;;;;;;;12.43;3.47;;;24.60;97.70;;;;;;5016934;28;20236;-62
2022/05/08 10:27:18;;;;;;;8.82;3.28;;;24.40;99.00;;;;;;5016264;28;20640;-60
2022/05/08 10:30:28;;;;;;;13.32;4.05;;;24.90;98.90;;;;;;5036576;28;20198;-60
2022/05/08 10:32:58;;;;;;;9.02;3.40;;;24.70;99.30;;;;;;5028988;28;20644;-60
2022/05/08 10:35:29;;;;;;;10.70;5.72;;;24.30;96.60;;;;;;5022538;28;20227;-60
2022/05/08 10:38:19;;;;;;;18.98;3.92;;;24.10;99.20;;;;;;5034040;28;20194;-60
2022/05/08 10:40:47;;;;;;;7.47;3.83;;;24.20;97.90;;;;;;5032513;28;20289;-60
2022/05/08 10:43:26;;;;;;;11.73;6.07;;;24.40;98.70;;;;;;5033333;28;20283;-60
2022/05/08 10:45:54;;;;;;;14.50;5.90;;;25.10;97.10;;;;;;5030413;28;20210;-60
2022/05/08 10:48:30;;;;;;;7.10;3.05;;;24.80;97.50;;;;;;5029479;28;20531;-60
2022/05/08 10:51:00;;;;;;;8.65;3.15;;;24.60;95.80;;;;;;5029222;28;20294;-60
2022/05/08 10:53:32;;;;;;;9.38;3.65;;;24.60;95.00;;;;;;5036768;28;20207;-60
2022/05/08 10:56:04;;;;;;;9.30;3.10;;;24.60;95.70;;;;;;5014920;28;20728;-60
2022/05/08 10:58:33;;;;;;;7.17;3.27;;;24.70;96.20;;;;;;5029816;28;20576;-60
2022/05/08 11:01:04;;;;;;;6.88;3.72;;;24.50;95.10;;;;;;5027902;28;20219;-60
2022/05/08 11:03:36;;;;;;;8.35;4.38;;;24.60;96.70;;;;;;5041847;28;20195;-60
2022/05/08 11:06:06;;;;;;;6.00;3.15;;;24.80;95.90;;;;;;5024338;28;20596;-59
2022/05/08 11:08:35;;;;;;;4.73;2.70;;;24.60;95.80;;;;;;5025399;28;20195;-60
2022/05/08 11:11:09;;;;;;;7.93;2.90;;;24.70;95.00;;;;;;5009401;28;20710;-59
2022/05/08 11:13:43;;;;;;;8.60;3.07;;;24.40;94.20;;;;;;5010288;28;20609;-59
2022/05/08 11:16:15;;;;;;;10.27;3.17;;;24.30;95.20;;;;;;5033358;28;20212;-59
2022/05/08 11:18:45;;;;;;;8.80;2.83;;;24.10;94.40;;;;;;5035808;28;20234;-60
2022/05/08 11:21:16;;;;;;;6.27;2.60;;;23.90;94.00;;;;;;5029219;28;20214;-60
2022/05/08 11:23:45;;;;;;;4.70;2.60;;;23.80;96.20;;;;;;5045910;28;20250;-60
2022/05/08 11:26:14;;;;;;;6.27;2.70;;;24.10;94.20;;;;;;5012283;28;20202;-60
2022/05/08 11:28:50;;;;;;;5.73;2.20;;;23.80;95.30;;;;;;5019807;28;20194;-60
2022/05/08 11:31:19;;;;;;;3.77;1.93;;;23.80;94.60;;;;;;5029104;28;20572;-60
2022/05/08 11:36:37;;;;;;;10.23;2.23;;;23.70;92.90;;;;;;5005375;28;20195;-60
2022/05/08 11:39:10;;;;;;;4.90;2.20;;;23.40;93.20;;;;;;5025329;28;20206;-60
2022/05/08 11:41:41;;;;;;;9.00;2.63;;;23.50;95.80;;;;;;5024262;28;20234;-59
2022/05/08 11:44:28;;;;;;;4.00;2.10;;;23.50;94.50;;;;;;5023334;28;20220;-59
2022/05/08 11:46:57;;;;;;;7.37;2.20;;;23.30;92.40;;;;;;5043990;28;20676;-60
2022/05/08 11:49:29;;;;;;;6.53;2.40;;;23.40;92.90;;;;;;5026321;28;20209;-59
2022/05/08 11:51:58;;;;;;;6.70;2.70;;;22.80;92.80;;;;;;5023235;28;20347;-59
2022/05/08 11:54:30;;;;;;;5.37;2.43;;;22.70;94.10;;;;;;5028052;28;20406;-61
2022/05/08 11:57:12;;;;;;;5.13;2.47;;;22.30;93.80;;;;;;5029212;28;20203;-61
2022/05/08 11:59:42;;;;;;;3.87;2.50;;;22.40;97.20;;;;;;5027373;28;20206;-61
2022/05/08 12:02:11;;;;;;;8.83;2.50;;;22.70;93.70;;;;;;5025345;28;20225;-61
2022/05/08 12:04:43;;;;;;;6.10;2.53;;;22.40;94.50;;;;;;5041693;28;20194;-61
2022/05/08 12:07:14;;;;;;;4.90;2.20;;;22.60;97.70;;;;;;5006725;28;20274;-61
2022/05/08 12:09:54;;;;;;;5.20;2.27;;;22.90;97.00;;;;;;5010246;28;20253;-61
2022/05/08 12:12:25;;;;;;;7.43;2.50;;;23.10;95.90;;;;;;5010144;28;20197;-62
2022/05/08 12:14:59;;;;;;;3.83;2.47;;;23.20;98.60;;;;;;5029708;28;20214;-62
2022/05/08 12:17:29;;;;;;;5.17;2.37;;;23.40;95.30;;;;;;5019637;28;20278;-61
2022/05/08 12:20:00;;;;;;;8.20;2.60;;;23.30;95.50;;;;;;5017562;28;20199;-61
2022/05/08 12:22:30;;;;;;;6.73;2.47;;;23.20;95.40;;;;;;5027748;28;20216;-62
2022/05/08 12:24:59;;;;;;;4.33;2.07;;;23.10;97.40;;;;;;5029891;28;20615;-61
2022/05/08 12:27:29;;;;;;;6.50;2.60;;;23.10;97.70;;;;;;5031325;28;20200;-61
2022/05/08 12:29:58;;;;;;;6.83;2.20;;;23.10;95.50;;;;;;5024341;28;20398;-61
2022/05/08 12:32:26;;;;;;;5.73;2.10;;;22.90;96.00;;;;;;5032205;28;20524;-61
2022/05/08 12:34:57;;;;;;;4.67;2.20;;;22.70;93.80;;;;;;5032230;28;20520;-61
2022/05/08 12:37:28;;;;;;;6.30;2.23;;;22.50;96.40;;;;;;5028457;28;20198;-61
2022/05/08 12:39:57;;;;;;;6.40;2.30;;;22.40;97.30;;;;;;5031804;28;20197;-61
2022/05/08 12:42:25;;;;;;;5.53;2.30;;;22.50;97.20;;;;;;5027737;28;20610;-61
2022/05/08 12:44:53;;;;;;;8.03;2.30;;;22.40;96.70;;;;;;5022948;28;20198;-61
2022/05/08 12:47:22;;;;;;;6.43;2.20;;;22.40;97.40;;;;;;5024615;28;20284;-60
2022/05/08 12:49:50;;;;;;;5.50;1.70;;;22.50;96.00;;;;;;5029835;28;20198;-60
2022/05/08 12:52:19;;;;;;;8.10;2.40;;;22.60;98.10;;;;;;5027046;28;20197;-61
2022/05/08 12:54:49;;;;;;;5.97;2.27;;;22.70;96.20;;;;;;5022427;28;20197;-61
2022/05/08 13:00:00;;;;;;;4.50;2.10;;;22.70;97.40;;;;;;5004309;28;21004;-61
2022/05/08 13:02:28;;;;;;;5.17;1.80;;;22.40;96.70;;;;;;5008455;28;20307;-61
2022/05/08 13:04:57;;;;;;;4.63;1.97;;;22.60;95.30;;;;;;5028804;28;20197;-61
2022/05/08 13:07:26;;;;;;;6.60;2.20;;;22.50;93.70;;;;;;5039182;28;20220;-61
2022/05/08 13:09:56;;;;;;;5.50;1.87;;;22.10;95.80;;;;;;5033758;28;20202;-61
2022/05/08 13:12:24;;;;;;;4.33;2.13;;;22.20;94.10;;;;;;5043285;28;20284;-61
2022/05/08 13:14:53;;;;;;;4.00;1.90;;;22.40;97.60;;;;;;5027495;28;20201;-61
2022/05/08 13:17:22;;;;;;;3.27;1.70;;;22.70;96.00;;;;;;5028026;28;20208;-61
2022/05/08 13:19:50;;;;;;;2.77;1.73;;;22.70;95.20;;;;;;4989768;28;20709;-61
2022/05/08 13:22:19;;;;;;;1.33;1.23;;;22.70;95.60;;;;;;5047729;28;20267;-61
2022/05/08 13:24:47;;;;;;;2.77;1.60;;;22.90;96.20;;;;;;5028861;28;20216;-61
2022/05/08 13:27:17;;;;;;;4.30;2.23;;;22.80;95.60;;;;;;5030182;28;20571;-61